createdAt,value
2019-03-30T00:00:36.079Z,95852.38
2019-03-30T00:03:04.294Z,95842.59
2019-03-30T00:05:33.434Z,95837.17
2019-03-30T00:08:02.820Z,95840.73
2019-03-30T00:10:32.116Z,95838.58
2019-03-30T00:13:00.466Z,95832.28
2019-03-30T00:15:28.688Z,95838.58
2019-03-30T00:17:57.173Z,95836.30
2019-03-30T00:20:25.241Z,95837.36
2019-03-30T00:22:53.278Z,95837.34
2019-03-30T00:25:22.235Z,95841.47
2019-03-30T00:27:50.368Z,95837.48
2019-03-30T00:30:19.286Z,95835.76
2019-03-30T00:32:48.247Z,95836.66
2019-03-30T00:35:16.222Z,95824.92
2019-03-30T00:37:44.283Z,95819.22
2019-03-30T00:40:12.221Z,95825.86
2019-03-30T00:42:40.593Z,95805.12
2019-03-30T00:45:08.916Z,95818.35
2019-03-30T00:47:37.076Z,95820.98
2019-03-30T00:50:05.341Z,95818.03
2019-03-30T00:52:33.325Z,95816.17
2019-03-30T00:55:01.352Z,95820.58
2019-03-30T00:57:29.340Z,95815.39
2019-03-30T00:59:57.346Z,95814.30
2019-03-30T01:02:25.344Z,95815.87
2019-03-30T01:04:53.258Z,95813.92
2019-03-30T01:07:21.295Z,95815.13
2019-03-30T01:09:49.274Z,95819.55
2019-03-30T01:12:17.289Z,95818.98
2019-03-30T01:14:45.274Z,95821.35
2019-03-30T01:17:13.363Z,95813.31
2019-03-30T01:19:41.427Z,95812.45
2019-03-30T01:22:09.510Z,95815.00
2019-03-30T01:24:37.433Z,95816.72
2019-03-30T01:27:05.651Z,95826.72
2019-03-30T01:29:33.810Z,95818.32
2019-03-30T01:32:01.742Z,95826.57
2019-03-30T01:34:29.832Z,95824.91
2019-03-30T01:36:57.842Z,95823.25
2019-03-30T01:39:25.882Z,95828.23
2019-03-30T01:41:53.818Z,95821.28
2019-03-30T01:44:21.807Z,95829.39
2019-03-30T01:46:49.837Z,95826.89
2019-03-30T01:49:17.819Z,95830.97
2019-03-30T01:51:45.852Z,95820.89
2019-03-30T01:54:13.794Z,95824.24
2019-03-30T01:56:41.818Z,95827.14
2019-03-30T01:59:09.796Z,95831.72
2019-03-30T02:01:37.905Z,95827.17
2019-03-30T02:04:05.908Z,95826.19
2019-03-30T02:06:33.824Z,95830.20
2019-03-30T02:09:01.806Z,95822.77
2019-03-30T02:11:29.809Z,95828.94
2019-03-30T02:13:57.822Z,95825.16
2019-03-30T02:16:25.819Z,95822.70
2019-03-30T02:18:53.808Z,95817.76
2019-03-30T02:21:21.899Z,95822.16
2019-03-30T02:23:49.928Z,95822.00
2019-03-30T02:26:17.921Z,95823.16
2019-03-30T02:28:45.922Z,95822.61
2019-03-30T02:31:13.900Z,95823.03
2019-03-30T02:33:41.877Z,95828.95
2019-03-30T02:36:09.927Z,95818.44
2019-03-30T02:38:37.929Z,95825.48
2019-03-30T02:41:05.922Z,95823.97
2019-03-30T02:43:33.904Z,95827.95
2019-03-30T02:46:01.914Z,95823.22
2019-03-30T02:48:29.899Z,95823.62
2019-03-30T02:50:57.965Z,95813.69
2019-03-30T02:53:25.953Z,95817.14
2019-03-30T02:55:53.939Z,95812.94
2019-03-30T02:58:21.977Z,95822.86
2019-03-30T03:00:50.013Z,95821.72
2019-03-30T03:03:18.023Z,95824.58
2019-03-30T03:05:46.068Z,95824.38
2019-03-30T03:08:14.068Z,95817.53
2019-03-30T03:10:42.243Z,95817.93
2019-03-30T03:13:10.173Z,95824.41
2019-03-30T03:15:38.163Z,95819.05
2019-03-30T03:18:06.143Z,95825.17
2019-03-30T03:20:34.089Z,95828.61
2019-03-30T03:23:02.207Z,95824.98
2019-03-30T03:25:30.371Z,95828.23
2019-03-30T03:27:58.381Z,95825.74
2019-03-30T03:30:26.352Z,95829.18
2019-03-30T03:32:54.393Z,95821.73
2019-03-30T03:35:22.618Z,95822.90
2019-03-30T03:37:50.604Z,95829.39
2019-03-30T03:40:18.679Z,95826.72
2019-03-30T03:42:46.817Z,95826.33
2019-03-30T03:45:14.999Z,95821.73
2019-03-30T03:47:42.989Z,95823.64
2019-03-30T03:50:28.784Z,95824.22
2019-03-30T03:52:56.889Z,95852.69
2019-03-30T03:55:25.092Z,95823.46
2019-03-30T03:57:53.641Z,95832.80
2019-03-30T04:00:21.829Z,95833.75
2019-03-30T04:02:51.579Z,95831.84
2019-03-30T04:05:23.180Z,95835.30
2019-03-30T04:07:53.345Z,95844.08
2019-03-30T04:10:24.959Z,95839.31
2019-03-30T04:12:56.261Z,95849.99
2019-03-30T04:15:24.906Z,95845.95
2019-03-30T04:17:53.220Z,95848.66
2019-03-30T04:20:23.688Z,95856.48
2019-03-30T04:22:53.380Z,95863.14
2019-03-30T04:25:23.003Z,95857.98
2019-03-30T04:27:51.285Z,95856.05
2019-03-30T04:30:19.235Z,95864.11
2019-03-30T04:32:47.232Z,95865.64
2019-03-30T04:35:15.289Z,95818.78
2019-03-30T04:37:43.371Z,95861.02
2019-03-30T04:40:11.995Z,95865.21
2019-03-30T04:42:40.070Z,95861.48
2019-03-30T04:45:08.505Z,95862.83
2019-03-30T04:47:36.551Z,95864.70
2019-03-30T04:50:04.824Z,95865.83
2019-03-30T04:52:32.820Z,95866.62
2019-03-30T04:55:00.914Z,95873.69
2019-03-30T04:57:29.012Z,95872.68
2019-03-30T04:59:56.982Z,95870.05
2019-03-30T05:02:25.051Z,95871.90
2019-03-30T05:04:53.040Z,95874.17
2019-03-30T05:07:21.029Z,95881.96
2019-03-30T05:09:49.138Z,95872.70
2019-03-30T05:12:17.148Z,95882.52
2019-03-30T05:14:46.139Z,95885.13
2019-03-30T05:17:14.239Z,95876.30
2019-03-30T05:19:42.333Z,95880.22
2019-03-30T05:22:12.921Z,95878.95
2019-03-30T05:24:40.488Z,95879.00
2019-03-30T05:27:08.689Z,95876.94
2019-03-30T05:29:36.792Z,95879.56
2019-03-30T05:32:04.924Z,95886.91
2019-03-30T05:34:33.143Z,95878.67
2019-03-30T05:37:01.186Z,95878.50
2019-03-30T05:39:29.804Z,95870.33
2019-03-30T05:41:58.062Z,95868.38
2019-03-30T05:44:26.079Z,95878.52
2019-03-30T05:46:54.092Z,95872.50
2019-03-30T05:49:22.155Z,95866.94
2019-03-30T05:51:50.162Z,95865.81
2019-03-30T05:54:19.404Z,95867.64
2019-03-30T05:56:47.384Z,95866.98
2019-03-30T05:59:15.494Z,95868.13
2019-03-30T06:01:43.708Z,95864.41
2019-03-30T06:04:11.607Z,95864.44
2019-03-30T06:06:39.623Z,95859.88
2019-03-30T06:09:07.707Z,95857.19
2019-03-30T06:11:35.640Z,95848.70
2019-03-30T06:14:03.733Z,95849.33
2019-03-30T06:16:31.720Z,95845.34
2019-03-30T06:18:59.770Z,95853.75
2019-03-30T06:21:27.959Z,95844.09
2019-03-30T06:23:56.028Z,95838.46
2019-03-30T06:26:24.072Z,95850.19
2019-03-30T06:28:52.241Z,95838.01
2019-03-30T06:31:20.258Z,95841.41
2019-03-30T06:33:48.983Z,95849.36
2019-03-30T06:36:16.984Z,95844.67
2019-03-30T06:38:44.988Z,95853.28
2019-03-30T06:41:13.306Z,95857.73
2019-03-30T06:43:41.801Z,95843.11
2019-03-30T06:46:09.865Z,95844.39
2019-03-30T06:48:37.872Z,95847.08
2019-03-30T06:51:05.941Z,95851.48
2019-03-30T06:53:33.979Z,95854.63
2019-03-30T06:56:01.953Z,95863.67
2019-03-30T06:58:31.416Z,95860.81
2019-03-30T07:00:59.746Z,95859.84
2019-03-30T07:03:28.111Z,95857.09
2019-03-30T07:05:57.139Z,95849.58
2019-03-30T07:08:28.669Z,95863.69
2019-03-30T07:10:58.099Z,95858.66
2019-03-30T07:13:27.709Z,95855.24
2019-03-30T07:15:57.949Z,95853.84
2019-03-30T07:18:25.953Z,95860.34
2019-03-30T07:20:54.126Z,95873.02
2019-03-30T07:23:22.295Z,95867.22
2019-03-30T07:25:50.503Z,95860.88
2019-03-30T07:28:18.608Z,95864.36
2019-03-30T07:30:47.091Z,95861.27
2019-03-30T07:33:15.353Z,95862.27
2019-03-30T07:35:43.447Z,95848.24
2019-03-30T07:38:11.602Z,95859.09
2019-03-30T07:40:39.598Z,95855.94
2019-03-30T07:43:08.465Z,95850.34
2019-03-30T07:45:36.499Z,95852.65
2019-03-30T07:48:04.667Z,95847.73
2019-03-30T07:50:33.289Z,95848.36
2019-03-30T07:53:01.294Z,95849.37
2019-03-30T07:55:29.315Z,95854.03
2019-03-30T07:57:57.265Z,95848.62
2019-03-30T08:00:30.718Z,95855.69
2019-03-30T08:02:56.309Z,95851.83
2019-03-30T08:05:24.476Z,95843.69
2019-03-30T08:07:52.768Z,95845.47
2019-03-30T08:10:21.903Z,95864.87
2019-03-30T08:12:50.089Z,95847.24
2019-03-30T08:15:18.187Z,95843.78
2019-03-30T08:17:46.199Z,95840.28
2019-03-30T08:20:14.657Z,95849.08
2019-03-30T08:22:42.687Z,95843.56
2019-03-30T08:25:11.035Z,95840.02
2019-03-30T08:27:39.126Z,95843.64
2019-03-30T08:30:07.862Z,95842.42
2019-03-30T08:32:35.942Z,95837.28
2019-03-30T08:35:04.680Z,95839.08
2019-03-30T08:37:32.726Z,95831.08
2019-03-30T08:40:00.948Z,95846.49
2019-03-30T08:42:29.007Z,95837.29
2019-03-30T08:44:57.007Z,95835.35
2019-03-30T08:47:25.079Z,95827.62
2019-03-30T08:49:53.247Z,95823.69
2019-03-30T08:52:21.246Z,95828.09
2019-03-30T08:54:49.344Z,95827.28
2019-03-30T08:57:17.392Z,95819.13
2019-03-30T08:59:45.433Z,95814.23
2019-03-30T09:02:13.391Z,95819.38
2019-03-30T09:04:41.474Z,95815.38
2019-03-30T09:07:09.491Z,95816.14
2019-03-30T09:09:37.533Z,95804.69
2019-03-30T09:12:05.500Z,95802.41
2019-03-30T09:14:33.600Z,95798.83
2019-03-30T09:17:01.649Z,95796.92
2019-03-30T09:19:29.732Z,95787.02
2019-03-30T09:21:57.821Z,95793.36
2019-03-30T09:24:25.906Z,95790.12
2019-03-30T09:26:53.941Z,95789.20
2019-03-30T09:29:22.030Z,95790.43
2019-03-30T09:31:50.144Z,95797.59
2019-03-30T09:34:18.212Z,95795.05
2019-03-30T09:36:46.426Z,95788.66
2019-03-30T09:39:14.570Z,95785.75
2019-03-30T09:41:42.590Z,95786.26
2019-03-30T09:44:10.613Z,95787.88
2019-03-30T09:46:38.633Z,95777.16
2019-03-30T09:49:06.667Z,95777.21
2019-03-30T09:51:34.709Z,95770.81
2019-03-30T09:54:02.797Z,95768.97
2019-03-30T09:56:32.438Z,95772.97
2019-03-30T09:59:00.472Z,95779.59
2019-03-30T10:01:28.472Z,95773.68
2019-03-30T10:03:56.563Z,95752.34
2019-03-30T10:06:33.897Z,95759.44
2019-03-30T10:08:54.568Z,95751.14
2019-03-30T10:11:22.544Z,95746.54
2019-03-30T10:13:50.659Z,95749.11
2019-03-30T10:16:18.640Z,95740.54
2019-03-30T10:18:46.713Z,95739.22
2019-03-30T10:21:14.918Z,95743.47
2019-03-30T10:23:43.075Z,95733.02
2019-03-30T10:26:11.148Z,95727.23
2019-03-30T10:28:39.152Z,95727.34
2019-03-30T10:31:07.216Z,95727.96
2019-03-30T10:33:35.254Z,95727.26
2019-03-30T10:36:03.502Z,95720.09
2019-03-30T10:38:31.628Z,95725.20
2019-03-30T10:40:59.628Z,95718.84
2019-03-30T10:43:27.796Z,95712.84
2019-03-30T10:45:55.835Z,95706.48
2019-03-30T10:48:23.863Z,95699.95
2019-03-30T10:50:51.916Z,95695.42
2019-03-30T10:53:19.971Z,95704.22
2019-03-30T10:55:48.009Z,95696.75
2019-03-30T10:58:16.028Z,95699.28
2019-03-30T11:00:44.124Z,95698.25
2019-03-30T11:03:12.328Z,95672.56
2019-03-30T11:05:40.476Z,95681.53
2019-03-30T11:08:08.567Z,95675.02
2019-03-30T11:10:36.788Z,95664.39
2019-03-30T11:13:04.977Z,95667.58
2019-03-30T11:15:34.298Z,95659.52
2019-03-30T11:18:02.866Z,95656.30
2019-03-30T11:20:31.021Z,95646.38
2019-03-30T11:22:59.062Z,95648.20
2019-03-30T11:25:27.203Z,95634.61
2019-03-30T11:27:55.274Z,95638.50
2019-03-30T11:30:23.238Z,95634.76
2019-03-30T11:32:51.232Z,95625.37
2019-03-30T11:35:19.305Z,95636.24
2019-03-30T11:37:47.290Z,95626.94
2019-03-30T11:40:15.369Z,95624.99
2019-03-30T11:42:44.104Z,95619.13
2019-03-30T11:45:13.370Z,95612.95
2019-03-30T11:47:42.105Z,95608.39
2019-03-30T11:50:10.130Z,95605.08
2019-03-30T11:52:38.342Z,95612.32
2019-03-30T11:55:20.539Z,95606.59
2019-03-30T11:57:37.251Z,95605.09
2019-03-30T12:00:05.809Z,95595.42
2019-03-30T12:02:33.812Z,95610.22
2019-03-30T12:05:01.826Z,95601.58
2019-03-30T12:07:29.861Z,95602.05
2019-03-30T12:09:57.987Z,95605.22
2019-03-30T12:12:25.998Z,95591.94
2019-03-30T12:14:54.034Z,95588.02
2019-03-30T12:17:22.448Z,95597.67
2019-03-30T12:19:50.591Z,95585.88
2019-03-30T12:22:18.654Z,95583.27
2019-03-30T12:24:46.883Z,95583.02
2019-03-30T12:27:15.117Z,95570.05
2019-03-30T12:29:44.631Z,95586.02
2019-03-30T12:32:12.787Z,95566.98
2019-03-30T12:34:41.420Z,95571.97
2019-03-30T12:37:09.702Z,95564.24
2019-03-30T12:39:37.706Z,95562.57
2019-03-30T12:42:05.863Z,95560.77
2019-03-30T12:44:33.936Z,95553.20
2019-03-30T12:47:02.087Z,95558.66
2019-03-30T12:49:30.130Z,95557.59
2019-03-30T12:51:58.152Z,95547.94
2019-03-30T12:54:26.144Z,95542.64
2019-03-30T12:56:54.160Z,95545.62
2019-03-30T12:59:22.201Z,95532.16
2019-03-30T13:01:50.800Z,95534.00
2019-03-30T13:04:19.098Z,95537.03
2019-03-30T13:06:47.209Z,95523.09
2019-03-30T13:09:15.633Z,95532.17
2019-03-30T13:11:43.911Z,95526.41
2019-03-30T13:14:12.225Z,95521.40
2019-03-30T13:16:40.256Z,95532.48
2019-03-30T13:19:08.495Z,95522.47
2019-03-30T13:21:36.586Z,95521.88
2019-03-30T13:24:04.586Z,95529.71
2019-03-30T13:26:32.621Z,95512.66
2019-03-30T13:29:00.889Z,95524.24
2019-03-30T13:31:28.912Z,95526.77
2019-03-30T13:33:57.120Z,95520.19
2019-03-30T13:36:43.448Z,95527.04
2019-03-30T13:39:11.816Z,95526.80
2019-03-30T13:41:39.769Z,95514.13
2019-03-30T13:44:07.800Z,95525.23
2019-03-30T13:46:35.815Z,95532.20
2019-03-30T13:49:03.927Z,95523.23
2019-03-30T13:51:31.951Z,95513.57
2019-03-30T13:53:59.932Z,95508.14
2019-03-30T13:56:27.962Z,95503.46
2019-03-30T13:58:55.985Z,95514.61
2019-03-30T14:01:24.013Z,95516.55
2019-03-30T14:03:52.070Z,95518.22
2019-03-30T14:06:20.109Z,95515.91
2019-03-30T14:08:48.053Z,95512.80
2019-03-30T14:11:16.081Z,95506.69
2019-03-30T14:13:44.198Z,95508.72
2019-03-30T14:16:12.218Z,95499.52
2019-03-30T14:18:40.211Z,95500.73
2019-03-30T14:21:08.276Z,95501.88
2019-03-30T14:23:36.368Z,95506.03
2019-03-30T14:26:04.539Z,95510.88
2019-03-30T14:28:32.629Z,95496.65
2019-03-30T14:31:00.853Z,95503.31
2019-03-30T14:33:29.055Z,95506.48
2019-03-30T14:35:57.084Z,95496.37
2019-03-30T14:38:25.160Z,95495.42
2019-03-30T14:40:53.149Z,95509.62
2019-03-30T14:43:21.199Z,95496.67
2019-03-30T14:45:49.345Z,95505.42
2019-03-30T14:48:17.365Z,95507.09
2019-03-30T14:50:45.407Z,95509.53
2019-03-30T14:53:13.472Z,95512.70
2019-03-30T14:55:41.531Z,95508.01
2019-03-30T14:58:09.593Z,95502.86
2019-03-30T15:00:37.747Z,95508.31
2019-03-30T15:03:05.840Z,95513.59
2019-03-30T15:05:34.015Z,95511.67
2019-03-30T15:08:02.202Z,95509.00
2019-03-30T15:10:30.184Z,95502.34
2019-03-30T15:12:58.220Z,95505.96
2019-03-30T15:15:26.366Z,95489.96
2019-03-30T15:17:54.417Z,95501.02
2019-03-30T15:20:22.473Z,95508.72
2019-03-30T15:22:50.495Z,95512.48
2019-03-30T15:25:18.633Z,95508.12
2019-03-30T15:27:46.660Z,95506.33
2019-03-30T15:30:14.967Z,95511.01
2019-03-30T15:32:43.139Z,95502.56
2019-03-30T15:35:11.304Z,95514.17
2019-03-30T15:37:39.772Z,95509.94
2019-03-30T15:40:08.347Z,95512.21
2019-03-30T15:42:39.878Z,95515.09
2019-03-30T15:45:06.980Z,95502.39
2019-03-30T15:47:36.016Z,95510.86
2019-03-30T15:50:04.567Z,95503.33
2019-03-30T15:52:33.029Z,95506.64
2019-03-30T15:55:01.328Z,95517.80
2019-03-30T15:57:29.301Z,95506.63
2019-03-30T15:59:57.318Z,95520.05
2019-03-30T16:02:25.405Z,95510.11
2019-03-30T16:04:53.505Z,95503.30
2019-03-30T16:07:21.571Z,95505.86
2019-03-30T16:09:51.764Z,95514.41
2019-03-30T16:12:19.798Z,95516.52
2019-03-30T16:14:47.869Z,95510.48
2019-03-30T16:17:15.884Z,95507.92
2019-03-30T16:19:43.866Z,95519.80
2019-03-30T16:22:12.264Z,95510.16
2019-03-30T16:24:41.405Z,95524.62
2019-03-30T16:27:09.471Z,95515.08
2019-03-30T16:29:37.565Z,95519.89
2019-03-30T16:32:05.635Z,95520.05
2019-03-30T16:34:33.823Z,95523.47
2019-03-30T16:37:01.926Z,95532.66
2019-03-30T16:39:29.909Z,95527.17
2019-03-30T16:41:57.935Z,95537.12
2019-03-30T16:44:26.014Z,95537.55
2019-03-30T16:46:57.287Z,95552.56
2019-03-30T16:49:23.812Z,95541.24
2019-03-30T16:51:51.874Z,95538.31
2019-03-30T16:54:19.986Z,95545.39
2019-03-30T16:56:48.136Z,95536.45
2019-03-30T16:59:16.217Z,95532.35
2019-03-30T17:01:44.344Z,95535.94
2019-03-30T17:04:12.529Z,95533.41
2019-03-30T17:06:40.615Z,95537.14
2019-03-30T17:09:09.045Z,95533.67
2019-03-30T17:11:37.548Z,95526.27
2019-03-30T17:14:05.854Z,95532.27
2019-03-30T17:16:33.946Z,95532.05
2019-03-30T17:19:01.894Z,95534.00
2019-03-30T17:21:31.931Z,95529.45
2019-03-30T17:24:00.159Z,95533.67
2019-03-30T17:26:28.072Z,95541.50
2019-03-30T17:28:56.118Z,95532.16
2019-03-30T17:31:27.245Z,95544.36
2019-03-30T17:33:56.078Z,95535.50
2019-03-30T17:36:25.703Z,95548.13
2019-03-30T17:38:54.216Z,95552.45
2019-03-30T17:41:24.917Z,95546.44
2019-03-30T17:43:54.122Z,95553.64
2019-03-30T17:46:22.451Z,95565.25
2019-03-30T17:48:50.385Z,95550.35
2019-03-30T17:51:20.494Z,95548.80
2019-03-30T17:53:49.437Z,95553.89
2019-03-30T17:56:17.479Z,95559.27
2019-03-30T17:58:45.477Z,95549.16
2019-03-30T18:01:15.708Z,95550.36
2019-03-30T18:03:43.653Z,95559.25
2019-03-30T18:06:11.817Z,95550.98
2019-03-30T18:08:39.972Z,95557.43
2019-03-30T18:11:08.123Z,95557.67
2019-03-30T18:13:36.924Z,95550.16
2019-03-30T18:16:05.103Z,95560.08
2019-03-30T18:18:33.414Z,95550.60
2019-03-30T18:21:01.634Z,95550.84
2019-03-30T18:23:29.635Z,95552.28
2019-03-30T18:25:57.690Z,95551.52
2019-03-30T18:28:27.260Z,95547.05
2019-03-30T18:30:55.996Z,95540.95
2019-03-30T18:33:24.657Z,95542.07
2019-03-30T18:35:53.279Z,95540.77
2019-03-30T18:38:21.972Z,95551.83
2019-03-30T18:40:50.746Z,95554.15
2019-03-30T18:43:19.416Z,95550.37
2019-03-30T18:45:47.464Z,95548.09
2019-03-30T18:48:16.967Z,95550.17
2019-03-30T18:50:48.682Z,95557.98
2019-03-30T18:53:18.167Z,95557.87
2019-03-30T18:55:46.613Z,95556.25
2019-03-30T18:58:14.815Z,95559.88
2019-03-30T19:00:42.841Z,95557.55
2019-03-30T19:03:11.325Z,95563.23
2019-03-30T19:05:39.314Z,95559.08
2019-03-30T19:08:07.665Z,95567.28
2019-03-30T19:10:35.819Z,95565.44
2019-03-30T19:13:03.830Z,95570.64
2019-03-30T19:15:32.071Z,95574.42
2019-03-30T19:18:00.047Z,95563.23
2019-03-30T19:20:28.060Z,95569.62
2019-03-30T19:22:56.154Z,95568.05
2019-03-30T19:25:24.315Z,95571.83
2019-03-30T19:27:52.595Z,95570.42
2019-03-30T19:30:21.075Z,95567.81
2019-03-30T19:32:49.223Z,95581.57
2019-03-30T19:35:17.317Z,95575.52
2019-03-30T19:37:45.354Z,95569.75
2019-03-30T19:40:13.589Z,95569.23
2019-03-30T19:42:43.152Z,95569.47
2019-03-30T19:45:11.540Z,95594.89
2019-03-30T19:47:39.717Z,95575.25
2019-03-30T19:50:08.163Z,95575.63
2019-03-30T19:52:40.008Z,95580.23
2019-03-30T19:55:08.269Z,95601.00
2019-03-30T19:57:36.572Z,95586.66
2019-03-30T20:00:06.402Z,95585.55
2019-03-30T20:02:34.350Z,95590.72
2019-03-30T20:05:03.290Z,95585.00
2019-03-30T20:07:31.827Z,95587.05
2019-03-30T20:10:00.515Z,95586.40
2019-03-30T20:12:29.467Z,95582.05
2019-03-30T20:14:57.644Z,95577.18
2019-03-30T20:17:25.648Z,95581.47
2019-03-30T20:19:53.682Z,95586.87
2019-03-30T20:22:22.095Z,95577.14
2019-03-30T20:24:51.430Z,95576.03
2019-03-30T20:27:22.319Z,95581.43
2019-03-30T20:29:51.523Z,95579.77
2019-03-30T20:32:19.510Z,95581.02
2019-03-30T20:34:48.767Z,95570.88
2019-03-30T20:37:16.723Z,95568.02
2019-03-30T20:39:44.715Z,95564.45
2019-03-30T20:42:12.922Z,95563.33
2019-03-30T20:44:41.659Z,95570.81
2019-03-30T20:47:09.793Z,95572.90
2019-03-30T20:49:37.861Z,95566.61
2019-03-30T20:52:05.822Z,95440.44
2019-03-30T20:54:33.940Z,95566.48
2019-03-30T20:57:02.035Z,95571.44
2019-03-30T20:59:39.774Z,95560.05
2019-03-30T21:02:02.133Z,95563.66
2019-03-30T21:04:30.123Z,95563.28
2019-03-30T21:06:58.320Z,95555.77
2019-03-30T21:09:26.407Z,95556.29
2019-03-30T21:11:54.793Z,95556.45
2019-03-30T21:14:22.788Z,95551.39
2019-03-30T21:16:50.742Z,95555.02
2019-03-30T21:19:18.792Z,95558.31
2019-03-30T21:21:47.246Z,95555.77
2019-03-30T21:24:15.477Z,95543.47
2019-03-30T21:26:43.577Z,95546.67
2019-03-30T21:29:12.072Z,95550.87
2019-03-30T21:31:40.031Z,95547.86
2019-03-30T21:34:08.137Z,95548.38
2019-03-30T21:36:36.101Z,95523.77
2019-03-30T21:39:06.378Z,95544.67
2019-03-30T21:41:34.469Z,95542.45
2019-03-30T21:44:02.719Z,95540.42
2019-03-30T21:46:30.656Z,95542.64
2019-03-30T21:48:59.003Z,95537.06
2019-03-30T21:51:26.979Z,95547.30
2019-03-30T21:53:54.908Z,95543.24
2019-03-30T21:56:23.108Z,95540.19
2019-03-30T21:58:51.304Z,95547.48
2019-03-30T22:01:19.356Z,95541.54
2019-03-30T22:03:47.399Z,95544.81
2019-03-30T22:06:15.810Z,95539.42
2019-03-30T22:08:44.024Z,95531.08
2019-03-30T22:11:11.952Z,95521.50
2019-03-30T22:13:40.087Z,95528.73
2019-03-30T22:16:08.340Z,95529.92
2019-03-30T22:18:36.313Z,95527.45
2019-03-30T22:21:04.445Z,95526.52
2019-03-30T22:23:32.884Z,95527.30
2019-03-30T22:26:01.013Z,95526.20
2019-03-30T22:28:29.194Z,95511.95
2019-03-30T22:30:57.176Z,95526.59
2019-03-30T22:33:25.099Z,95521.23
2019-03-30T22:35:53.205Z,95519.31
2019-03-30T22:38:21.198Z,95527.19
2019-03-30T22:40:49.199Z,95519.98
2019-03-30T22:43:18.061Z,95520.95
2019-03-30T22:45:46.107Z,95524.33
2019-03-30T22:48:14.162Z,95521.80
2019-03-30T22:50:42.245Z,95520.69
2019-03-30T22:53:10.166Z,95512.45
2019-03-30T22:55:38.159Z,95517.36
2019-03-30T22:58:06.170Z,95520.90
2019-03-30T23:00:52.348Z,95526.14
2019-03-30T23:03:20.373Z,95515.70
2019-03-30T23:05:48.965Z,95524.00
2019-03-30T23:08:17.065Z,95532.00
2019-03-30T23:10:45.150Z,95514.67
2019-03-30T23:13:13.084Z,95510.47
2019-03-30T23:15:41.110Z,95517.81
2019-03-30T23:18:09.155Z,95505.42
2019-03-30T23:20:37.206Z,95504.98
2019-03-30T23:23:05.216Z,95493.48
2019-03-30T23:25:33.196Z,95489.28
2019-03-30T23:28:01.360Z,95495.57
2019-03-30T23:30:29.339Z,95489.91
2019-03-30T23:32:57.296Z,95486.70
2019-03-30T23:35:25.297Z,95488.73
2019-03-30T23:37:53.298Z,95489.49
2019-03-30T23:40:21.252Z,95482.57
2019-03-30T23:42:49.275Z,95488.77
2019-03-30T23:45:17.417Z,95483.30
2019-03-30T23:47:45.634Z,95488.59
2019-03-30T23:50:13.794Z,95484.44
2019-03-30T23:52:41.870Z,95475.13
2019-03-30T23:55:09.922Z,95470.32
2019-03-30T23:57:37.916Z,95472.20
